»·PEaware :: N9TB KSEE-KTUS

N9TB :: KSEE-KTUS

FLIGHT INFORMATION

Flight Status: Arrived
Operator: Privately registered:
United States
More flights under this callsign
Pilot: Chuck P. (19509)
Aircraft: SOCATA TBM-900
(TBM9)
More flights by this aircraft type
Origin: KSEE Gillespie
United States
Destination: KTUS Tucson Intl
United States
More flights between these airports :: More routes between these airports
Route: +MZB1 MZB T326 IPL V66 GBN DINGO5
File this flight plan on PilotEdge
Remarks:
Altitude:
(Current/Filed)
26,000ft
Speed:
(Current/Filed)
335kts
Departed: 03-Oct-20 04:28 PM
Arrived: 03-Oct-20 06:00 PM
Distance/Time
Traveled:
309nm/1:32
Distance/Time
To Go:
Arrived

Flight Plot

Page will automatically refresh every two minutes.

Flight plan parsing failed; only flown route is shown


Map Options




Map Legend


Flown Route
Filed Route
Departure Airport
Arrival Airport
Navaid (VOR, NDB)
Fix

Horizontal Profiles

Position Reports

Time Latitude Longitude Heading Altitude Ground
Speed
03-Oct-20 15:41 32.824829 -116.968132 14 380ft 0kts
03-Oct-20 15:42 32.824829 -116.968132 14 380ft 0kts
03-Oct-20 15:43 32.824829 -116.968132 14 380ft 0kts
03-Oct-20 15:44 32.824829 -116.968132 14 380ft 0kts
03-Oct-20 15:45 32.824829 -116.968132 14 380ft 0kts
03-Oct-20 15:46 32.824829 -116.968132 14 380ft 0kts
03-Oct-20 15:47 32.824829 -116.968132 14 380ft 0kts
03-Oct-20 15:48 32.824829 -116.968132 14 380ft 0kts
03-Oct-20 15:49 32.824834 -116.968130 14 380ft 0kts
03-Oct-20 15:50 32.824834 -116.968130 14 380ft 0kts
03-Oct-20 15:51 32.824834 -116.968130 14 380ft 0kts
03-Oct-20 15:52 32.824834 -116.968130 14 380ft 0kts
03-Oct-20 15:53 32.824834 -116.968130 14 380ft 0kts
03-Oct-20 15:54 32.824834 -116.968130 14 380ft 0kts
03-Oct-20 15:55 32.824834 -116.968130 14 380ft 0kts
03-Oct-20 15:56 32.824834 -116.968130 14 380ft 0kts
03-Oct-20 15:57 32.824834 -116.968130 14 380ft 0kts
03-Oct-20 15:58 32.824834 -116.968130 14 380ft 0kts
03-Oct-20 15:59 32.824834 -116.968130 14 380ft 0kts
03-Oct-20 16:00 32.824834 -116.968130 14 380ft 0kts
03-Oct-20 16:01 32.824834 -116.968130 14 380ft 0kts
03-Oct-20 16:02 32.824834 -116.968130 14 380ft 0kts
03-Oct-20 16:03 32.824834 -116.968130 14 380ft 0kts
03-Oct-20 16:04 32.824834 -116.968130 14 380ft 0kts
03-Oct-20 16:05 32.824834 -116.968130 14 380ft 0kts
03-Oct-20 16:06 32.824834 -116.968130 14 380ft 0kts
03-Oct-20 16:07 32.824834 -116.968130 14 380ft 0kts
03-Oct-20 16:08 32.824834 -116.968130 14 380ft 0kts
03-Oct-20 16:09 32.824834 -116.968130 14 380ft 0kts
03-Oct-20 16:10 32.824834 -116.968130 14 380ft 0kts
03-Oct-20 16:11 32.824834 -116.968130 14 380ft 0kts
03-Oct-20 16:12 32.824834 -116.968130 14 380ft 0kts
03-Oct-20 16:13 32.824834 -116.968130 14 380ft 0kts
03-Oct-20 16:14 32.824834 -116.968130 14 380ft 0kts
03-Oct-20 16:15 32.824834 -116.968130 14 380ft 0kts
03-Oct-20 16:16 32.824834 -116.968130 14 380ft 0kts
03-Oct-20 16:17 32.824834 -116.968130 14 380ft 0kts
03-Oct-20 16:18 32.824834 -116.968130 14 380ft 0kts
03-Oct-20 16:19 32.824834 -116.968130 14 380ft 0kts
03-Oct-20 16:20 32.824834 -116.968130 14 380ft 0kts
03-Oct-20 16:21 32.824750 -116.967778 118 381ft 5kts
03-Oct-20 16:22 32.824910 -116.964590 33 392ft 8kts
03-Oct-20 16:23 32.825919 -116.964400 336 393ft 0kts
03-Oct-20 16:24 32.825919 -116.964400 336 393ft 0kts
03-Oct-20 16:25 32.825919 -116.964400 336 393ft 0kts
03-Oct-20 16:26 32.825919 -116.964400 336 393ft 0kts
03-Oct-20 16:27 32.828417 -116.976546 273 664ft 105kts
03-Oct-20 16:28 32.854537 -116.987207 54 2623ft 142kts
03-Oct-20 16:29 32.827597 -116.966410 199 3016ft 176kts
03-Oct-20 16:30 32.776999 -116.977582 191 2995ft 178kts
03-Oct-20 16:31 32.733478 -116.986638 191 4056ft 135kts
03-Oct-20 16:32 32.693442 -116.995435 191 4607ft 145kts
03-Oct-20 16:33 32.652375 -117.005523 191 5362ft 154kts
03-Oct-20 16:34 32.612107 -117.006201 120 7772ft 143kts
03-Oct-20 16:35 32.623916 -116.961572 74 10058ft 146kts
03-Oct-20 16:36 32.629691 -116.910049 84 11925ft 167kts
03-Oct-20 16:37 32.635201 -116.850123 84 14044ft 179kts
03-Oct-20 16:38 32.640826 -116.787651 84 15275ft 208kts
03-Oct-20 16:39 32.646801 -116.720968 84 17367ft 195kts
03-Oct-20 16:40 32.652671 -116.654892 84 19445ft 198kts
03-Oct-20 16:41 32.658669 -116.586949 84 21523ft 206kts
03-Oct-20 16:42 32.664859 -116.516332 84 23390ft 213kts
03-Oct-20 16:43 32.671260 -116.442771 84 24941ft 236kts
03-Oct-20 16:44 32.679104 -116.352097 84 24924ft 290kts
03-Oct-20 16:45 32.687874 -116.249870 84 24873ft 309kts
03-Oct-20 16:46 32.696819 -116.144507 84 24827ft 311kts
03-Oct-20 16:47 32.705652 -116.039345 84 24826ft 310kts
03-Oct-20 16:48 32.714454 -115.933463 84 24826ft 310kts
03-Oct-20 16:49 32.723224 -115.826885 84 24826ft 310kts
03-Oct-20 16:50 32.731896 -115.720356 84 24826ft 310kts
03-Oct-20 16:51 32.740422 -115.614516 84 24826ft 310kts
03-Oct-20 16:52 32.748722 -115.510159 85 24825ft 310kts
03-Oct-20 16:53 32.751416 -115.404606 88 24826ft 312kts
03-Oct-20 16:54 32.753945 -115.297665 89 24826ft 313kts
03-Oct-20 16:55 32.756378 -115.190670 88 24826ft 313kts
03-Oct-20 16:56 32.758717 -115.083261 88 24834ft 312kts
03-Oct-20 16:57 32.760955 -114.976681 87 24841ft 312kts
03-Oct-20 16:58 32.763120 -114.870230 87 24844ft 312kts
03-Oct-20 17:00 32.765181 -114.763659 87 24844ft 312kts
03-Oct-20 17:01 32.767155 -114.656594 87 24843ft 312kts
03-Oct-20 17:02 32.768876 -114.550217 87 24843ft 312kts
03-Oct-20 17:03 32.770358 -114.444208 88 24843ft 312kts
03-Oct-20 17:04 32.771749 -114.338188 88 24844ft 312kts
03-Oct-20 17:05 32.773050 -114.231929 88 24844ft 312kts
03-Oct-20 17:06 32.774240 -114.127249 88 24844ft 311kts
03-Oct-20 17:07 32.775362 -114.020741 88 24844ft 310kts
03-Oct-20 17:08 32.784050 -113.915098 79 24844ft 310kts
03-Oct-20 17:09 32.799054 -113.810725 79 24844ft 310kts
03-Oct-20 17:10 32.813976 -113.706159 79 24846ft 310kts
03-Oct-20 17:11 32.828799 -113.601624 79 24853ft 309kts
03-Oct-20 17:12 32.844373 -113.491163 79 22801ft 340kts
03-Oct-20 17:13 32.860608 -113.375113 79 20519ft 345kts
03-Oct-20 17:14 32.876722 -113.259140 80 18232ft 335kts
03-Oct-20 17:15 32.891655 -113.150925 80 17100ft 297kts
03-Oct-20 17:16 32.905020 -113.053402 80 17009ft 285kts
03-Oct-20 17:17 32.918213 -112.956472 79 17008ft 285kts
03-Oct-20 17:17 32.929136 -112.875960 79 17007ft 287kts
03-Oct-20 17:18 32.942280 -112.778644 79 17009ft 292kts
03-Oct-20 17:20 32.951831 -112.663565 110 16984ft 297kts
03-Oct-20 17:20 32.922630 -112.586584 113 16783ft 306kts
03-Oct-20 17:21 32.884528 -112.487493 113 14727ft 325kts
03-Oct-20 17:22 32.845639 -112.386695 114 12669ft 325kts
03-Oct-20 17:23 32.807239 -112.287453 114 10612ft 318kts
03-Oct-20 17:24 32.771215 -112.194616 114 10029ft 287kts
03-Oct-20 17:25 32.738305 -112.110030 114 10052ft 273kts
03-Oct-20 17:26 32.705920 -112.026978 114 10063ft 271kts
03-Oct-20 17:27 32.673481 -111.943989 114 10063ft 271kts
03-Oct-20 17:28 32.641097 -111.861339 114 10064ft 271kts
03-Oct-20 17:29 32.608329 -111.777913 114 10066ft 275kts
03-Oct-20 17:30 32.575103 -111.693524 114 10070ft 276kts
03-Oct-20 17:31 32.537906 -111.611335 126 10081ft 276kts
03-Oct-20 17:32 32.489613 -111.538081 139 10077ft 276kts
03-Oct-20 17:33 32.429590 -111.476913 139 9934ft 267kts
03-Oct-20 17:34 32.375625 -111.421911 139 9931ft 239kts
03-Oct-20 17:35 32.321655 -111.366993 139 8537ft 257kts
03-Oct-20 17:36 32.266355 -111.310810 139 7239ft 236kts
03-Oct-20 17:37 32.223665 -111.267514 139 7248ft 199kts
03-Oct-20 17:38 32.181360 -111.224660 139 7275ft 196kts
03-Oct-20 17:39 32.139540 -111.182342 139 7276ft 190kts
03-Oct-20 17:40 32.099217 -111.141590 139 7279ft 181kts
03-Oct-20 17:41 32.060089 -111.102088 139 7217ft 182kts
03-Oct-20 17:42 32.019209 -111.060865 139 6978ft 183kts
03-Oct-20 17:43 31.980036 -111.021408 139 6979ft 176kts
03-Oct-20 17:44 31.943406 -110.984550 138 6982ft 164kts
03-Oct-20 17:45 31.912536 -110.950103 133 6972ft 133kts
03-Oct-20 17:46 31.883129 -110.915666 133 6619ft 154kts
03-Oct-20 17:47 31.876569 -110.874433 41 5914ft 144kts
03-Oct-20 17:48 31.901745 -110.844721 39 5874ft 108kts
03-Oct-20 17:49 31.924301 -110.818167 39 5903ft 102kts
03-Oct-20 17:50 31.946211 -110.792397 40 5289ft 108kts
03-Oct-20 17:51 31.969049 -110.772163 343 5349ft 94kts
03-Oct-20 17:52 31.992829 -110.795276 317 4481ft 112kts
03-Oct-20 17:53 32.011464 -110.816919 317 4375ft 87kts
03-Oct-20 17:54 32.029287 -110.837751 317 4385ft 88kts
03-Oct-20 17:55 32.047372 -110.858899 317 4166ft 88kts
03-Oct-20 17:56 32.064766 -110.879247 317 3707ft 87kts
03-Oct-20 17:57 32.082152 -110.899598 316 3238ft 88kts
03-Oct-20 17:58 32.099518 -110.920081 318 2761ft 87kts
03-Oct-20 17:59 32.110576 -110.932782 1 2619ft 0kts
03-Oct-20 18:00 32.112144 -110.932194 315 2619ft 0kts
03-Oct-20 18:01 32.112144 -110.932194 315 2619ft 0kts
03-Oct-20 18:02 32.112143 -110.932194 315 2619ft 0kts

Navigation Log

Ident Type
Flight plan parsing failed, navigation log unavailable